地図

経路データ

SID SEASON NUMBER BASIN SUBBASIN NAME ISO_TIME NATURE LAT LON WMO_WIND WMO_PRES WMO_AGENCY TRACK_TYPE DIST2LAND LANDFALL IFLAG USA_AGENCY USA_ATCF_ID USA_LAT USA_LON USA_RECORD USA_STATUS USA_WIND USA_PRES USA_SSHS USA_R34_NE USA_R34_SE USA_R34_SW USA_R34_NW USA_R50_NE USA_R50_SE USA_R50_SW USA_R50_NW USA_R64_NE USA_R64_SE USA_R64_SW USA_R64_NW USA_POCI USA_ROCI USA_RMW USA_EYE TOKYO_LAT TOKYO_LON TOKYO_GRADE TOKYO_WIND TOKYO_PRES TOKYO_R50_DIR TOKYO_R50_LONG TOKYO_R50_SHORT TOKYO_R30_DIR TOKYO_R30_LONG TOKYO_R30_SHORT TOKYO_LAND CMA_LAT CMA_LON CMA_CAT CMA_WIND CMA_PRES HKO_LAT HKO_LON HKO_CAT HKO_WIND HKO_PRES NEWDELHI_LAT NEWDELHI_LON NEWDELHI_GRADE NEWDELHI_WIND NEWDELHI_PRES NEWDELHI_CI NEWDELHI_DP NEWDELHI_POCI REUNION_LAT REUNION_LON REUNION_TYPE REUNION_WIND REUNION_PRES REUNION_TNUM REUNION_CI REUNION_RMW REUNION_R34_NE REUNION_R34_SE REUNION_R34_SW REUNION_R34_NW REUNION_R50_NE REUNION_R50_SE REUNION_R50_SW REUNION_R50_NW REUNION_R64_NE REUNION_R64_SE REUNION_R64_SW REUNION_R64_NW BOM_LAT BOM_LON BOM_TYPE BOM_WIND BOM_PRES BOM_TNUM BOM_CI BOM_RMW BOM_R34_NE BOM_R34_SE BOM_R34_SW BOM_R34_NW BOM_R50_NE BOM_R50_SE BOM_R50_SW BOM_R50_NW BOM_R64_NE BOM_R64_SE BOM_R64_SW BOM_R64_NW BOM_ROCI BOM_POCI BOM_EYE BOM_POS_METHOD BOM_PRES_METHOD NADI_LAT NADI_LON NADI_CAT NADI_WIND NADI_PRES WELLINGTON_LAT WELLINGTON_LON WELLINGTON_WIND WELLINGTON_PRES DS824_LAT DS824_LON DS824_STAGE DS824_WIND DS824_PRES TD9636_LAT TD9636_LON TD9636_STAGE TD9636_WIND TD9636_PRES TD9635_LAT TD9635_LON TD9635_WIND TD9635_PRES TD9635_ROCI NEUMANN_LAT NEUMANN_LON NEUMANN_CLASS NEUMANN_WIND NEUMANN_PRES MLC_LAT MLC_LON MLC_CLASS MLC_WIND MLC_PRES USA_GUST BOM_GUST BOM_GUST_PER REUNION_GUST REUNION_GUST_PER USA_SEAHGT USA_SEARAD_NE USA_SEARAD_SE USA_SEARAD_SW USA_SEARAD_NW STORM_SPEED STORM_DIR
1976054S16125 1976 18 SI WA WALLY 1976-02-22 12:00:00 TS -16.4000 125.000 main 0 0 O_____________ jtwc_sh SH161976 -16.4000 125.000 -1 12 271
1976054S16125 1976 18 SI WA WALLY 1976-02-22 15:00:00 TS -16.3929 124.387 main 0 0 P_____________ SH161976 -16.3929 124.387 -1 10 272
1976054S16125 1976 18 SI WA WALLY 1976-02-22 16:00:00 TS -16.3796 124.304 25 999 bom main 0 0 P_____O_______ SH161976 -16.3929 124.188 -1 -16.3000 125.000 20 25 999 5 271
1976054S16125 1976 18 SI WA WALLY 1976-02-22 18:00:00 TS -16.3873 124.118 main 0 0 O_____P__O__O_ jtwc_sh SH161976 -16.4000 123.800 -1 -16.3740 124.709 20 28 997 -16.4000 124.700 TC 35 997 -16.3000 124.900 TC 35 998 5 269
1976054S16125 1976 18 SI WA WALLY 1976-02-22 19:00:00 TS -16.3821 124.033 30 997 bom main 0 0 P_____O__P__P_ SH161976 -16.4083 123.614 -1 -16.4000 124.500 20 30 997 2.00000 -16.3528 124.392 TC 35 997 -16.2799 124.652 TC 35 997 9 272
1976054S16125 1976 18 SI WA WALLY 1976-02-22 21:00:00 TS -16.3738 123.648 main 10 10 P_____P__P__P_ SH161976 -16.4349 123.263 -1 -16.4134 123.914 20 30 997 -16.2787 123.804 TC 35 997 -16.2531 124.167 TC 37 997 11 272
1976054S16125 1976 18 SI WA WALLY 1976-02-22 22:00:00 TS -16.3645 123.454 30 997 bom main 15 15 P_____O__P__P_ SH161976 -16.4533 123.099 -1 -16.4000 123.600 20 30 997 2.00000 -16.2627 123.539 TC 35 997 -16.2535 123.934 TC 38 997 12 269
1976054S16125 1976 18 SI WA WALLY 1976-02-23 00:00:00 TS -16.3886 123.030 main 11 11 O_____P__OO_O_ jtwc_sh SH161976 -16.5000 122.800 -1 -16.3151 123.006 20 30 997 -16.3000 123.100 TC 35 997 -16.5000 122.800 4 -16.3000 123.500 TC 40 997 12 264
1976054S16125 1976 18 SI WA WALLY 1976-02-23 01:00:00 TS -16.4256 122.858 30 997 bom main 11 10 P_____O__PP_P_ SH161976 -16.5275 122.666 -1 -16.3000 122.800 20 30 997 2.00000 -16.3618 122.937 TC 35 996 -16.5444 122.697 4 -16.3515 123.303 TC 39 996 8 249
1976054S16125 1976 18 SI WA WALLY 1976-02-23 03:00:00 TS -16.5380 122.625 main 24 15 P_____P__PP_P_ SH161976 -16.5923 122.427 -1 -16.4011 122.727 20 30 997 -16.5419 122.698 TC 35 996 -16.6313 122.488 4 -16.4923 122.948 TC 37 996 7 241
1976054S16125 1976 18 SI WA WALLY 1976-02-23 04:00:00 TS -16.6061 122.517 30 997 bom main 24 24 P_____O__PP_P_ SH161976 -16.6277 122.317 -1 -16.5000 122.700 20 30 997 2.00000 -16.6397 122.601 TC 35 996 -16.6729 122.382 4 -16.5685 122.788 TC 36 996 8 239
1976054S16125 1976 18 SI WA WALLY 1976-02-23 06:00:00 TS -16.7396 122.274 main 30 30 O_____P__OP_O_ jtwc_sh SH161976 -16.7000 122.100 -1 -16.7875 122.381 20 30 996 -16.8000 122.400 TC 35 996 -16.7500 122.161 4 -16.7000 122.500 TC 35 996 8 243
1976054S16125 1976 18 SI WA WALLY 1976-02-23 07:00:00 TS -16.7886 122.143 30 996 bom main 39 39 P_____O__PP_P_ SH161976 -16.7385 121.991 -1 -16.9000 122.200 20 30 996 2.50000 -16.8312 122.259 TC 35 995 -16.7846 122.046 4 -16.7389 122.371 TC 35 995 8 255
1976054S16125 1976 18 SI WA WALLY 1976-02-23 09:00:00 TS -16.8392 121.896 main 54 54 P_____P__PP_P_ SH161976 -16.8148 121.773 -1 -16.9296 121.928 20 33 995 -16.8450 121.957 TC 37 995 -16.8437 121.803 4 -16.7872 122.142 TC 37 995 7 260
1976054S16125 1976 18 SI WA WALLY 1976-02-23 10:00:00 TS -16.8498 121.771 35 995 bom main 62 62 P_____O__PP_P_ SH161976 -16.8490 121.657 -1 -16.9000 121.800 20 35 995 2.50000 -16.8351 121.803 TC 38 995 -16.8672 121.675 4 -16.7985 122.033 TC 38 995 7 267
1976054S16125 1976 18 SI WA WALLY 1976-02-23 12:00:00 TS -16.8565 121.506 main 86 86 O_____P__OO_O_ jtwc_sh SH161976 -16.9000 121.400 -1 -16.8387 121.533 20 35 995 -16.8000 121.500 TC 40 995 -16.9000 121.400 4 -16.8000 121.800 TC 40 995 8 270
1976054S16125 1976 18 SI WA WALLY 1976-02-23 13:00:00 TS -16.8481 121.364 35 995 bom main 101 101 P_____O__PP_P_ SH161976 -16.9088 121.250 -1 -16.8000 121.400 30 35 995 3.00000 -16.7784 121.369 TC 40 994 -16.9086 121.253 4 -16.7842 121.664 TC 40 994 8 275
1976054S16125 1976 18 SI WA WALLY 1976-02-23 15:00:00 TS -16.8195 121.069 main 129 129 P_____P__PP_P_ SH161976 -16.9075 120.922 -1 -16.7254 121.141 30 35 995 -16.7272 121.115 TC 40 994 -16.9142 120.942 4 -16.7349 121.372 TC 40 994 9 276
1976054S16125 1976 18 SI WA WALLY 1976-02-23 16:00:00 TS -16.8065 120.914 35 995 bom main 149 149 P_____O__PP_P_ SH161976 -16.9030 120.749 -1 -16.7000 121.000 30 35 995 3.00000 -16.7069 120.985 TC 40 993 -16.9137 120.780 4 -16.7125 121.218 TC 40 993 9 272
1976054S16125 1976 18 SI WA WALLY 1976-02-23 18:00:00 TS -16.7999 120.586 main 179 179 O_____P__OP_O_ jtwc_sh SH161976 -16.9000 120.400 -1 -16.6867 120.672 30 38 993 -16.7000 120.700 TC 40 993 -16.9126 120.444 4 -16.7000 120.900 TC 40 993 9 269
1976054S16125 1976 18 SI WA WALLY 1976-02-23 19:00:00 TS -16.8116 120.419 40 993 bom main 199 199 P_____O__PP_P_ SH161976 -16.9030 120.233 -1 -16.7000 120.500 30 40 993 3.00000 -16.7246 120.534 TC 41 992 -16.9145 120.272 4 -16.7245 120.742 TC 40 992 10 263
1976054S16125 1976 18 SI WA WALLY 1976-02-23 21:00:00 TS -16.8566 120.081 main 226 226 P_____P__PP_P_ SH161976 -16.9199 119.900 -1 -16.7454 120.175 30 40 993 -16.8125 120.173 TC 45 991 -16.9297 119.923 4 -16.8124 120.415 TC 42 991 10 260
1976054S16125 1976 18 SI WA WALLY 1976-02-23 22:00:00 TS -16.8935 119.907 40 993 bom main 246 246 P_____O__PP_P_ SH161976 -16.9374 119.733 -1 -16.8000 120.000 30 40 993 3.00000 -16.8704 119.983 TC 46 990 -16.9455 119.748 4 -16.8703 120.247 TC 43 991 11 254
1976054S16125 1976 18 SI WA WALLY 1976-02-24 00:00:00 TS -16.9995 119.550 main 284 284 O_____P__OO_O_ jtwc_sh SH161976 -17.0000 119.400 -1 -16.9971 119.598 30 43 990 -17.0000 119.600 TC 50 989 -17.0000 119.400 4 -17.0000 119.900 TC 45 990 11 252
1976054S16125 1976 18 SI WA WALLY 1976-02-24 01:00:00 TS -17.0599 119.374 45 989 bom main 292 292 P_____O__PP_P_ SH161976 -17.0468 119.233 -1 -17.1000 119.400 30 45 989 3.00000 -17.0583 119.417 TC 50 988 -17.0467 119.238 4 -17.0609 119.722 TC 45 989 11 249
1976054S16125 1976 18 SI WA WALLY 1976-02-24 03:00:00 TS -17.1864 119.032 main 324 324 P_____P__PP_P_ SH161976 -17.1699 118.900 -1 -17.2387 119.069 30 48 988 -17.1849 119.050 TC 50 987 -17.1628 118.916 4 -17.1924 119.357 TC 47 988 11 248
1976054S16125 1976 18 SI WA WALLY 1976-02-24 04:00:00 TS -17.2549 118.860 50 988 bom main 313 306 P_____O__PP_P_ SH161976 -17.2424 118.733 -1 -17.3000 118.900 30 50 988 3.50000 -17.2532 118.867 TC 50 987 -17.2306 118.755 4 -17.2612 119.172 TC 48 988 11 247
1976054S16125 1976 18 SI WA WALLY 1976-02-24 06:00:00 TS -17.4025 118.505 main 308 300 O_____P__OP_O_ jtwc_sh SH161976 -17.4000 118.400 -1 -17.4333 118.498 30 50 986 -17.4000 118.500 TC 50 986 -17.3815 118.430 4 -17.4000 118.800 TC 50 987 11 246
1976054S16125 1976 18 SI WA WALLY 1976-02-24 07:00:00 TS -17.4766 118.330 50 986 bom main 302 295 P_____O__PP_P_ SH161976 -17.4775 118.239 -1 -17.5000 118.300 30 50 986 3.50000 -17.4775 118.319 TC 50 985 -17.4632 118.265 4 -17.4639 118.619 TC 50 986 11 245
1976054S16125 1976 18 SI WA WALLY 1976-02-24 09:00:00 TS -17.6298 117.990 main 302 296 P_____P__PP_P_ SH161976 -17.6423 117.915 -1 -17.6254 117.969 30 50 984 -17.6423 117.957 TC 52 984 -17.6346 117.929 4 -17.5923 118.257 TC 52 985 11 244
1976054S16125 1976 18 SI WA WALLY 1976-02-24 10:00:00 TS -17.7107 117.817 50 984 bom main 301 286 P_____O__PP_P_ SH161976 -17.7277 117.749 -1 -17.7000 117.800 30 50 984 3.50000 -17.7277 117.774 TC 53 984 -17.7227 117.756 4 -17.6586 118.074 TC 53 985 11 244
1976054S16125 1976 18 SI WA WALLY 1976-02-24 12:00:00 TS -17.8837 117.451 main 286 281 O_____P__OO_O_ jtwc_sh SH161976 -17.9000 117.400 -1 -17.9025 117.405 30 50 983 -17.9000 117.400 TC 55 983 -17.9000 117.400 4 -17.8000 117.700 TC 55 984 12 244
1976054S16125 1976 18 SI WA WALLY 1976-02-24 13:00:00 TS -17.9663 117.255 50 983 bom main 281 279 P_____O__PP_P_ SH161976 -17.9833 117.211 -1 -18.0000 117.200 30 50 983 3.50000 -17.9833 117.200 TC 55 982 -17.9703 117.205 4 -17.8776 117.503 TC 55 983 12 247
1976054S16125 1976 18 SI WA WALLY 1976-02-24 15:00:00 TS -18.1223 116.854 main 279 268 P_____P__PP_P_ SH161976 -18.1499 116.815 -1 -18.1308 116.800 30 53 982 -18.1500 116.792 TC 57 982 -18.1108 116.800 4 -18.0424 117.100 TC 57 982 12 248
1976054S16125 1976 18 SI WA WALLY 1976-02-24 16:00:00 TS -18.2017 116.650 55 982 bom main 268 249 P_____O__PP_P_ SH161976 -18.2333 116.611 -1 -18.2000 116.600 30 55 982 4.00000 -18.2333 116.590 TC 58 981 -18.1826 116.593 4 -18.1279 116.897 TC 58 982 13 247
1976054S16125 1976 18 SI WA WALLY 1976-02-24 18:00:00 TS -18.3726 116.245 main 251 251 O_____P__OP_O_ jtwc_sh SH161976 -18.4000 116.200 -1 -18.4025 116.192 30 58 981 -18.4000 116.200 TC 60 981 -18.3332 116.177 4 -18.3000 116.500 TC 60 981 13 246
1976054S16125 1976 18 SI WA WALLY 1976-02-24 19:00:00 TS -18.4534 116.048 60 981 bom main 246 242 P_____O__PP_P_ SH161976 -18.4754 115.992 -1 -18.5000 116.000 30 60 981 4.00000 -18.4779 116.024 TC 60 981 -18.4137 115.970 4 -18.3780 116.308 TC 60 981 12 247
1976054S16125 1976 18 SI WA WALLY 1976-02-24 21:00:00 TS -18.6074 115.668 main 247 246 P_____P__PP_P_ SH161976 -18.6275 115.577 -1 -18.6308 115.661 30 60 981 -18.6347 115.692 TC 60 981 -18.5889 115.565 4 -18.5348 115.935 TC 60 981 12 246
1976054S16125 1976 18 SI WA WALLY 1976-02-24 22:00:00 TS -18.6899 115.484 60 981 bom main 246 246 P_____O__PP_P_ SH161976 -18.7096 115.376 -1 -18.7000 115.500 30 60 981 4.00000 -18.7173 115.530 TC 60 981 -18.6854 115.370 4 -18.6174 115.753 TC 60 981 12 242
1976054S16125 1976 18 SI WA WALLY 1976-02-25 00:00:00 TS -18.8824 115.129 main 251 246 O_____P__OO_O_ jtwc_sh SH161976 -18.9000 115.000 -1 -18.8945 115.175 30 60 981 -18.9000 115.200 TC 60 981 -18.9000 115.000 4 -18.8000 115.400 TC 60 981 12 239
1976054S16125 1976 18 SI WA WALLY 1976-02-25 01:00:00 TS -18.9904 114.952 60 981 bom main 246 246 P_____O__PP_P_ SH161976 -19.0108 114.830 -1 -19.0000 115.000 30 60 981 4.00000 -19.0001 115.007 TC 60 980 -19.0204 114.827 4 -18.9000 115.217 TC 60 980 12 236
1976054S16125 1976 18 SI WA WALLY 1976-02-25 03:00:00 TS -19.2234 114.601 main 252 248 P_____P__PP_P_ SH161976 -19.2623 114.520 -1 -19.1921 114.590 30 60 980 -19.2202 114.613 TC 60 980 -19.2838 114.500 4 -19.1200 114.862 TC 62 980 12 233
1976054S16125 1976 18 SI WA WALLY 1976-02-25 04:00:00 TS -19.3513 114.436 60 980 bom main 246 244 P_____O__PP_P_ SH161976 -19.4010 114.376 -1 -19.3000 114.400 30 60 980 4.00000 -19.3402 114.425 TC 60 979 -19.4253 114.345 4 -19.2400 114.696 TC 63 979 12 227
1976054S16125 1976 18 SI WA WALLY 1976-02-25 06:00:00 TS -19.6296 114.145 main 249 232 O_____P__OP_O_ jtwc_sh SH161976 -19.7000 114.100 -1 -19.5533 114.115 30 60 979 -19.6000 114.100 TC 60 979 -19.7243 114.053 4 -19.5000 114.400 TC 65 979 12 223
1976054S16125 1976 18 SI WA WALLY 1976-02-25 07:00:00 TS -19.7771 114.015 60 979 bom main 232 202 P_____O__PP_P_ SH161976 -19.8552 113.958 -1 -19.7000 114.000 30 60 979 4.00000 -19.7358 113.982 TC 60 978 -19.8806 113.914 4 -19.6358 114.277 TC 65 978 12 217
1976054S16125 1976 18 SI WA WALLY 1976-02-25 09:00:00 TS -20.0925 113.781 main 202 192 P_____P__PP_P_ SH161976 -20.1849 113.685 -1 -20.0279 113.787 30 60 978 -20.0272 113.805 TC 62 978 -20.2028 113.653 4 -19.9273 114.070 TC 65 978 12 214
1976054S16125 1976 18 SI WA WALLY 1976-02-25 10:00:00 TS -20.2568 113.675 60 978 bom main 181 154 P_____O__PP_P_ SH161976 -20.3557 113.553 -1 -20.2000 113.700 30 60 978 4.00000 -20.1810 113.734 TC 63 977 -20.3674 113.531 4 -20.0810 113.978 TC 65 977 12 210
1976054S16125 1976 18 SI WA WALLY 1976-02-25 12:00:00 TS -20.5889 113.474 main 154 147 O_____P__OO_O_ jtwc_sh SH161976 -20.7000 113.300 -1 -20.5333 113.545 30 63 977 -20.5000 113.600 TC 65 977 -20.7000 113.300 4 -20.4000 113.800 TC 65 977 11 210
1976054S16125 1976 18 SI WA WALLY 1976-02-25 13:00:00 TS -20.7523 113.372 65 977 bom main 137 121 P_____O__PP_P_ SH161976 -20.8666 113.170 -1 -20.7000 113.500 40 65 977 4.50000 -20.6583 113.522 TC 65 976 -20.8611 113.172 4 -20.5609 113.700 TC 65 976 11 208
1976054S16125 1976 18 SI WA WALLY 1976-02-25 15:00:00 TS -21.0833 113.195 main 121 121 P_____P__PP_P_ SH161976 -21.2000 112.920 -1 -21.0332 113.536 40 65 976 -20.9849 113.365 TC 65 976 -21.1895 112.929 4 -20.8924 113.500 TC 67 976 11 207
1976054S16125 1976 18 SI WA WALLY 1976-02-25 16:00:00 TS -21.2506 113.101 65 976 bom main 114 112 P_____O__PP_P_ SH161976 -21.3667 112.804 -1 -21.2000 113.500 40 65 976 4.50000 -21.1532 113.282 TC 65 975 -21.3561 112.816 4 -21.0612 113.400 TC 68 975 12 211
1976054S16125 1976 18 SI WA WALLY 1976-02-25 18:00:00 TS -21.5876 112.870 main 117 117 O_____P__OP_O_ jtwc_sh SH161976 -21.7000 112.600 -1 -21.5335 113.109 40 68 975 -21.5000 113.100 TC 65 975 -21.6923 112.608 4 -21.4000 113.200 TC 70 975 12 213
1976054S16125 1976 18 SI WA WALLY 1976-02-25 19:00:00 TS -21.7565 112.748 70 975 bom main 126 117 P_____O__PP_P_ SH161976 -21.8666 112.506 -1 -21.7000 112.900 40 70 975 4.50000 -21.6804 112.974 TC 65 974 -21.8612 112.516 4 -21.5641 113.087 TC 70 974 12 210
1976054S16125 1976 18 SI WA WALLY 1976-02-25 21:00:00 TS -22.0945 112.551 main 117 117 P_____P__PP_P_ SH161976 -22.1999 112.347 -1 -22.0254 112.684 40 70 974 -22.0502 112.706 TC 67 974 -22.1990 112.358 4 -21.8926 112.863 TC 70 974 11 207
1976054S16125 1976 18 SI WA WALLY 1976-02-25 22:00:00 TS -22.2659 112.468 70 974 bom main 117 117 P_____O__PP_P_ SH161976 -22.3666 112.285 -1 -22.2000 112.600 40 70 974 4.50000 -22.2360 112.582 TC 68 973 -22.3671 112.294 4 -22.0588 112.761 TC 70 973 11 201
1976054S16125 1976 18 SI WA WALLY 1976-02-26 00:00:00 TS -22.6171 112.328 main 133 133 O_____P__OO_O_ jtwc_sh SH161976 -22.7000 112.200 -1 -22.6025 112.369 40 73 973 -22.6000 112.400 TC 70 973 -22.7000 112.200 4 -22.4000 112.600 TC 70 973 11 198
1976054S16125 1976 18 SI WA WALLY 1976-02-26 01:00:00 TS -22.7906 112.288 75 973 bom main 135 135 P_____O__PP_P_ SH161976 -22.8693 112.172 -1 -22.8000 112.300 40 75 973 4.50000 -22.7697 112.368 TC 69 973 -22.8554 112.169 4 -22.5802 112.547 TC 70 973 10 183
1976054S16125 1976 18 SI WA WALLY 1976-02-26 03:00:00 TS -23.1275 112.278 main 144 139 P_____P__PP_P_ SH161976 -23.2074 112.155 -1 -23.1388 112.345 40 75 973 -23.0999 112.382 TC 67 973 -23.1616 112.143 4 -22.9499 112.490 TC 70 973 10 178
1976054S16125 1976 18 SI WA WALLY 1976-02-26 04:00:00 TS -23.2938 112.295 75 974 bom main 139 126 P_____O__PP_P_ SH161976 -23.3745 112.162 -1 -23.3000 112.400 40 75 974 4.50000 -23.2641 112.415 TC 66 973 -23.3137 112.146 4 -23.1357 112.482 TC 70 973 10 173
1976054S16125 1976 18 SI WA WALLY 1976-02-26 06:00:00 TS -23.6242 112.341 main 126 112 O_____P__OP_O_ jtwc_sh SH161976 -23.7000 112.200 -1 -23.6254 112.467 40 75 974 -23.6000 112.500 TC 65 974 -23.6197 112.179 4 -23.5000 112.500 TC 70 973 10 172
1976054S16125 1976 18 SI WA WALLY 1976-02-26 07:00:00 TS -23.7889 112.366 75 974 bom main 112 106 P_____O__PP_P_ SH161976 -23.8505 112.222 -1 -23.8000 112.500 40 75 974 4.50000 -23.7855 112.533 TC 65 974 -23.7748 112.206 4 -23.6724 112.516 TC 69 973 10 170
1976054S16125 1976 18 SI WA WALLY 1976-02-26 09:00:00 TS -24.1268 112.433 main 106 91 P_____P__PP_P_ SH161976 -24.1425 112.285 -1 -24.2104 112.567 40 75 974 -24.1650 112.607 TC 65 975 -24.0930 112.275 4 -24.0075 112.577 TC 67 974 10 169
1976054S16125 1976 18 SI WA WALLY 1976-02-26 10:00:00 TS -24.2934 112.470 75 975 bom main 91 91 P_____O__PP_P_ SH161976 -24.2896 112.322 -1 -24.4000 112.600 40 75 975 4.50000 -24.3516 112.644 TC 65 975 -24.2573 112.315 4 -24.1721 112.617 TC 66 974 10 168
1976054S16125 1976 18 SI WA WALLY 1976-02-26 12:00:00 TS -24.6129 112.546 main 93 87 O_____P__OO_O_ jtwc_sh SH161976 -24.6000 112.400 -1 -24.6775 112.675 40 75 976 -24.7000 112.700 TC 65 977 -24.6000 112.400 4 -24.5000 112.700 TC 65 976 10 169
1976054S16125 1976 18 SI WA WALLY 1976-02-26 13:00:00 TS -24.7690 112.565 75 977 bom main 92 92 P_____O__PP_P_ SH161976 -24.7667 112.431 -1 -24.8000 112.700 40 75 977 4.50000 -24.8399 112.696 TC 64 977 -24.7742 112.399 4 -24.6667 112.731 TC 65 976 10 175
1976054S16125 1976 18 SI WA WALLY 1976-02-26 15:00:00 TS -25.0909 112.591 main 103 97 P_____P__PP_P_ SH161976 -25.1200 112.493 -1 -25.0789 112.704 40 75 977 -25.0924 112.671 TC 62 978 -25.1341 112.395 4 -25.0000 112.793 TC 65 977 10 175
1976054S16125 1976 18 SI WA WALLY 1976-02-26 16:00:00 TS -25.2530 112.606 75 978 bom main 91 86 P_____O__PP_P_ SH161976 -25.3067 112.526 -1 -25.2000 112.700 40 75 978 4.50000 -25.2179 112.664 TC 61 978 -25.3204 112.398 4 -25.1666 112.826 TC 65 977 10 172
1976054S16125 1976 18 SI WA WALLY 1976-02-26 17:00:00 TS -25.4160 112.627 75 bom main 86 70 P_____I__PP_P_ SH161976 -25.5000 112.561 -1 -25.3000 112.700 40 75 978 4.50000 -25.3516 112.671 TC 60 978 -25.5113 112.407 4 -25.3333 112.861 TC 65 977 11 171
1976054S16125 1976 18 SI WA WALLY 1976-02-26 18:00:00 TS -25.6051 112.661 main 70 68 O_____P__OP_O_ jtwc_sh SH161976 -25.7000 112.600 -1 -25.5232 112.737 40 70 978 -25.5000 112.700 TC 60 979 -25.7071 112.426 4 -25.5000 112.900 TC 65 978 12 170
1976054S16125 1976 18 SI WA WALLY 1976-02-26 19:00:00 TS -25.8038 112.700 65 979 bom main 68 49 P_____O__PP_P_ SH161976 -25.8998 112.621 -1 -25.8000 112.800 40 65 979 4.50000 -25.6641 112.766 TC 60 979 -25.9081 112.458 4 -25.6509 112.937 TC 64 978 12 168
1976054S16125 1976 18 SI WA WALLY 1976-02-26 21:00:00 TS -26.1951 112.801 main 49 41 P_____P__PP_P_ SH161976 -26.3196 112.676 -1 -26.2174 112.907 40 65 979 -26.0327 112.955 TC 60 980 -26.3267 112.569 4 -25.9549 113.021 TC 62 979 12 165
1976054S16125 1976 18 SI WA WALLY 1976-02-26 22:00:00 TS -26.3970 112.874 65 980 bom main 41 41 P_____O__PP_P_ SH161976 -26.5396 112.725 -1 -26.4000 113.000 40 65 980 4.50000 -26.2389 113.067 TC 60 980 -26.5448 112.654 4 -26.1192 113.071 TC 61 979 14 157
1976054S16125 1976 18 SI WA WALLY 1976-02-27 00:00:00 TS -26.8166 113.091 main 50 50 O_____P__OO_O_ jtwc_sh SH161976 -27.0000 112.900 -1 -26.6994 113.349 40 61 980 -26.7000 113.300 TC 60 981 -27.0000 112.900 4 -26.5000 113.200 TC 60 980 14 156
1976054S16125 1976 18 SI WA WALLY 1976-02-27 01:00:00 TS -27.0505 113.207 60 981 bom main 59 54 P_____O__PP_P_ SH161976 -27.2357 113.025 -1 -26.9000 113.500 21 60 981 4.00000 -26.9596 113.369 TC 59 981 -27.2374 113.065 4 -26.7348 113.257 TC 59 980 17 158
1976054S16125 1976 18 SI WA WALLY 1976-02-27 03:00:00 TS -27.5878 113.448 main 67 49 P_____P__PP_P_ SH161976 -27.7268 113.366 -1 -27.5552 113.565 21 56 982 -27.5265 113.512 TC 57 983 -27.7295 113.476 4 -27.2618 113.404 TC 57 981 18 157
1976054S16125 1976 18 SI WA WALLY 1976-02-27 04:00:00 TS -27.8677 113.599 55 983 bom main 50 36 P_____O__PP_P_ SH161976 -27.9805 113.581 -1 -27.9000 113.600 21 55 983 4.00000 -27.8210 113.607 TC 56 983 -27.9830 113.717 4 -27.5413 113.506 TC 56 981 19 150
1976054S16125 1976 18 SI WA WALLY 1976-02-27 06:00:00 TS -28.4075 113.992 main 36 31 O_____P__OP_O_ jtwc_sh SH161976 -28.5000 114.100 -1 -28.4439 113.796 21 51 984 -28.4000 113.900 TC 55 985 -28.5012 114.259 4 -28.1000 113.800 TC 55 983 20 145
1976054S16125 1976 18 SI WA WALLY 1976-02-27 07:00:00 TS -28.6723 114.247 50 985 bom main 36 9 P_____O__PP_P_ SH161976 -28.7641 114.403 -1 -28.7000 114.000 21 50 985 3.50000 -28.6730 114.117 TC 51 986 -28.7647 114.556 4 -28.3676 114.003 TC 53 984 22 136
1976054S16125 1976 18 SI WA WALLY 1976-02-27 09:00:00 TS -29.2031 114.864 main 9 0 P_____P__PP_P_ SH161976 -29.2973 115.078 -1 -29.2495 114.711 21 50 987 -29.1849 114.676 TC 45 990 -29.2972 115.188 4 -28.8768 114.504 TC 50 987 23 134
1976054S16125 1976 18 SI WA WALLY 1976-02-27 10:00:00 TS -29.4635 115.199 50 988 bom main 0 0 P_____O__PP_P_ SH161976 -29.5651 115.442 -1 -29.5000 115.100 21 50 988 3.50000 -29.4281 115.001 TC 41 992 -29.5648 115.520 4 -29.1215 114.790 TC 48 988 23 131
1976054S16125 1976 18 SI WA WALLY 1976-02-27 12:00:00 TS -29.9451 115.849 main 0 0 O_____P__OO_O_ jtwc_sh SH161976 -30.1000 116.200 -1 -29.9266 115.735 21 36 993 -29.9000 115.700 TC 35 996 -30.1000 116.200 4 -29.6000 115.400 TC 45 992 19 133
1976054S16125 1976 18 SI WA WALLY 1976-02-27 13:00:00 NR -30.1000 116.000 30 996 bom main 0 0 ______O_______ SH161976 -1 -30.1000 116.000 20 30 996 TC 4 TC 13 131
1976054S16125 1976 18 SI WA WALLY 1976-02-27 15:00:00 NR -30.3786 116.420 main 0 0 ______P_______ SH161976 -1 -30.3786 116.420 20 30 1000 TC 4 TC 13 128
1976054S16125 1976 18 SI WA WALLY 1976-02-27 16:00:00 NR -30.5000 116.600 30 1002 bom main 0 ______O_______ SH161976 -1 -30.5000 116.600 20 30 1002 TC 4 TC 12 129

IBTrACS Databaseについて

本データベースは、米国NOAAが公開する1842年以降の世界の熱帯低気圧のベストトラックデータアーカイブInternational Best Track Archive for Climate Stewardship (IBTrACS)を、ウェブで閲覧しやすい形式に変換したものです。

最終更新日:2021-12-01